sensor_id;sensor_type;location;lat;lon;timestamp;P1;durP1;ratioP1;P2;durP2;ratioP2
76846;SDS011;65813;49.546;8.644;2023-02-05T05:16:15;6.28;;;2.70;;
76846;SDS011;65813;49.546;8.644;2023-02-05T05:20:15;8.77;;;3.10;;
76846;SDS011;65813;49.546;8.644;2023-02-05T05:24:16;6.25;;;2.40;;
76846;SDS011;65813;49.546;8.644;2023-02-05T05:28:16;5.30;;;2.67;;
76846;SDS011;65813;49.546;8.644;2023-02-05T05:32:17;6.82;;;3.00;;
76846;SDS011;65813;49.546;8.644;2023-02-05T05:36:17;6.33;;;3.20;;
76846;SDS011;65813;49.546;8.644;2023-02-05T05:40:18;7.65;;;2.83;;
76846;SDS011;65813;49.546;8.644;2023-02-05T05:44:37;8.57;;;2.63;;
76846;SDS011;65813;49.546;8.644;2023-02-05T05:48:37;5.53;;;2.73;;
76846;SDS011;65813;49.546;8.644;2023-02-05T05:52:38;6.50;;;2.80;;
76846;SDS011;65813;49.546;8.644;2023-02-05T05:56:38;5.33;;;2.43;;
76846;SDS011;65813;49.546;8.644;2023-02-05T06:00:38;7.00;;;2.60;;
76846;SDS011;65813;49.546;8.644;2023-02-05T06:04:39;6.55;;;2.47;;
76846;SDS011;65813;49.546;8.644;2023-02-05T06:08:41;5.97;;;2.67;;
76846;SDS011;65813;49.546;8.644;2023-02-05T06:12:41;5.87;;;2.70;;
76846;SDS011;65813;49.546;8.644;2023-02-05T06:16:41;8.37;;;2.57;;
76846;SDS011;65813;49.546;8.644;2023-02-05T06:20:42;4.50;;;2.23;;
76846;SDS011;65813;49.546;8.644;2023-02-05T06:24:42;6.70;;;2.45;;
76846;SDS011;65813;49.546;8.644;2023-02-05T06:28:43;5.50;;;2.10;;
76846;SDS011;65813;49.546;8.644;2023-02-05T06:32:43;7.23;;;2.73;;
76846;SDS011;65813;49.546;8.644;2023-02-05T06:36:43;6.10;;;2.10;;
76846;SDS011;65813;49.546;8.644;2023-02-05T06:40:43;4.27;;;1.97;;
76846;SDS011;65813;49.546;8.644;2023-02-05T06:44:45;8.02;;;3.10;;
76846;SDS011;65813;49.546;8.644;2023-02-05T06:48:46;4.85;;;2.10;;
76846;SDS011;65813;49.546;8.644;2023-02-05T06:52:46;4.30;;;2.13;;
76846;SDS011;65813;49.546;8.644;2023-02-05T06:56:46;6.10;;;2.20;;
76846;SDS011;65813;49.546;8.644;2023-02-05T07:00:47;4.23;;;2.10;;
76846;SDS011;65813;49.546;8.644;2023-02-05T07:04:47;4.65;;;2.38;;
76846;SDS011;65813;49.546;8.644;2023-02-05T07:08:48;6.50;;;2.40;;
76846;SDS011;65813;49.546;8.644;2023-02-05T07:12:49;7.25;;;2.55;;
76846;SDS011;65813;49.546;8.644;2023-02-05T07:16:50;5.87;;;2.50;;
76846;SDS011;65813;49.546;8.644;2023-02-05T07:20:50;5.47;;;2.60;;
76846;SDS011;65813;49.546;8.644;2023-02-05T07:24:50;7.30;;;3.33;;
76846;SDS011;65813;49.546;8.644;2023-02-05T07:28:51;5.82;;;3.35;;
76846;SDS011;65813;49.546;8.644;2023-02-05T07:32:51;7.63;;;3.03;;
76846;SDS011;65813;49.546;8.644;2023-02-05T07:36:52;9.67;;;3.07;;
76846;SDS011;65813;49.546;8.644;2023-02-05T07:40:52;6.33;;;3.30;;
76846;SDS011;65813;49.546;8.644;2023-02-05T07:44:52;7.97;;;3.80;;
76846;SDS011;65813;49.546;8.644;2023-02-05T07:48:53;9.73;;;3.90;;
76846;SDS011;65813;49.546;8.644;2023-02-05T07:52:53;8.02;;;4.05;;
76846;SDS011;65813;49.546;8.644;2023-02-05T07:56:54;8.45;;;4.30;;
76846;SDS011;65813;49.546;8.644;2023-02-05T08:00:58;12.27;;;6.63;;
76846;SDS011;65813;49.546;8.644;2023-02-05T08:04:59;18.67;;;7.75;;
76846;SDS011;65813;49.546;8.644;2023-02-05T08:08:59;12.07;;;5.20;;
76846;SDS011;65813;49.546;8.644;2023-02-05T08:13:00;18.13;;;7.43;;
76846;SDS011;65813;49.546;8.644;2023-02-05T08:17:00;12.27;;;6.23;;
76846;SDS011;65813;49.546;8.644;2023-02-05T08:21:00;11.68;;;5.53;;
76846;SDS011;65813;49.546;8.644;2023-02-05T08:25:01;16.48;;;6.32;;
76846;SDS011;65813;49.546;8.644;2023-02-05T08:29:02;13.90;;;6.57;;
76846;SDS011;65813;49.546;8.644;2023-02-05T08:33:03;13.07;;;6.03;;
76846;SDS011;65813;49.546;8.644;2023-02-05T08:37:03;18.10;;;7.10;;
76846;SDS011;65813;49.546;8.644;2023-02-05T08:41:13;18.30;;;7.30;;
76846;SDS011;65813;49.546;8.644;2023-02-05T08:45:13;12.70;;;6.97;;
76846;SDS011;65813;49.546;8.644;2023-02-05T08:49:14;17.90;;;6.77;;
76846;SDS011;65813;49.546;8.644;2023-02-05T08:53:15;16.02;;;6.60;;
76846;SDS011;65813;49.546;8.644;2023-02-05T08:57:16;19.63;;;8.60;;
76846;SDS011;65813;49.546;8.644;2023-02-05T09:01:16;18.03;;;7.83;;
76846;SDS011;65813;49.546;8.644;2023-02-05T09:05:17;16.20;;;7.38;;
76846;SDS011;65813;49.546;8.644;2023-02-05T09:09:17;17.90;;;8.37;;
76846;SDS011;65813;49.546;8.644;2023-02-05T09:13:18;19.00;;;7.95;;
76846;SDS011;65813;49.546;8.644;2023-02-05T09:17:18;16.43;;;7.67;;
76846;SDS011;65813;49.546;8.644;2023-02-05T09:21:18;18.85;;;9.73;;
76846;SDS011;65813;49.546;8.644;2023-02-05T09:25:19;17.83;;;8.07;;
76846;SDS011;65813;49.546;8.644;2023-02-05T09:29:19;18.63;;;7.97;;
76846;SDS011;65813;49.546;8.644;2023-02-05T09:33:20;14.83;;;8.10;;
76846;SDS011;65813;49.546;8.644;2023-02-05T09:37:20;20.10;;;8.65;;
76846;SDS011;65813;49.546;8.644;2023-02-05T09:41:25;15.02;;;7.72;;
76846;SDS011;65813;49.546;8.644;2023-02-05T09:50:19;14.63;;;6.88;;
76846;SDS011;65813;49.546;8.644;2023-02-05T09:54:35;17.58;;;8.43;;
76846;SDS011;65813;49.546;8.644;2023-02-05T09:58:42;13.48;;;7.30;;
76846;SDS011;65813;49.546;8.644;2023-02-05T10:11:30;19.48;;;9.32;;
76846;SDS011;65813;49.546;8.644;2023-02-05T10:32:41;19.45;;;10.15;;
76846;SDS011;65813;49.546;8.644;2023-02-05T10:36:56;24.83;;;9.60;;
76846;SDS011;65813;49.546;8.644;2023-02-05T10:41:03;22.02;;;9.32;;
76846;SDS011;65813;49.546;8.644;2023-02-05T10:49:15;18.63;;;8.47;;
76846;SDS011;65813;49.546;8.644;2023-02-05T10:53:23;18.77;;;8.77;;
76846;SDS011;65813;49.546;8.644;2023-02-05T10:57:27;19.40;;;8.48;;
76846;SDS011;65813;49.546;8.644;2023-02-05T11:01:35;12.93;;;7.28;;
76846;SDS011;65813;49.546;8.644;2023-02-05T11:05:37;15.98;;;9.32;;
76846;SDS011;65813;49.546;8.644;2023-02-05T11:09:40;25.85;;;11.40;;
76846;SDS011;65813;49.546;8.644;2023-02-05T11:13:46;22.63;;;11.70;;
76846;SDS011;65813;49.546;8.644;2023-02-05T11:18:10;20.73;;;10.43;;
76846;SDS011;65813;49.546;8.644;2023-02-05T11:22:30;19.33;;;9.32;;
76846;SDS011;65813;49.546;8.644;2023-02-05T11:26:34;16.98;;;9.50;;
76846;SDS011;65813;49.546;8.644;2023-02-05T11:30:35;19.20;;;8.90;;
76846;SDS011;65813;49.546;8.644;2023-02-05T11:34:36;18.52;;;9.32;;
76846;SDS011;65813;49.546;8.644;2023-02-05T11:38:44;21.17;;;9.67;;
76846;SDS011;65813;49.546;8.644;2023-02-05T11:42:47;24.55;;;11.00;;
76846;SDS011;65813;49.546;8.644;2023-02-05T11:46:57;23.83;;;12.45;;
76846;SDS011;65813;49.546;8.644;2023-02-05T11:51:00;19.92;;;10.77;;
76846;SDS011;65813;49.546;8.644;2023-02-05T11:55:02;21.92;;;10.57;;
76846;SDS011;65813;49.546;8.644;2023-02-05T11:59:05;23.70;;;10.50;;
76846;SDS011;65813;49.546;8.644;2023-02-05T12:03:17;20.10;;;10.35;;
76846;SDS011;65813;49.546;8.644;2023-02-05T12:07:18;17.80;;;8.75;;
76846;SDS011;65813;49.546;8.644;2023-02-05T12:11:39;21.92;;;9.02;;
76846;SDS011;65813;49.546;8.644;2023-02-05T12:20:27;18.98;;;9.02;;
76846;SDS011;65813;49.546;8.644;2023-02-05T12:37:08;19.30;;;10.23;;
76846;SDS011;65813;49.546;8.644;2023-02-05T12:41:32;21.30;;;10.95;;
76846;SDS011;65813;49.546;8.644;2023-02-05T12:46:06;18.50;;;9.48;;
76846;SDS011;65813;49.546;8.644;2023-02-05T12:59:03;15.40;;;8.13;;
76846;SDS011;65813;49.546;8.644;2023-02-05T13:07:40;23.48;;;10.70;;
76846;SDS011;65813;49.546;8.644;2023-02-05T13:11:52;16.63;;;9.43;;
76846;SDS011;65813;49.546;8.644;2023-02-05T13:16:01;17.95;;;10.18;;
76846;SDS011;65813;49.546;8.644;2023-02-05T13:20:13;13.77;;;8.25;;
76846;SDS011;65813;49.546;8.644;2023-02-05T13:24:40;16.55;;;8.13;;
76846;SDS011;65813;49.546;8.644;2023-02-05T13:29:06;16.63;;;9.70;;
76846;SDS011;65813;49.546;8.644;2023-02-05T13:33:10;14.90;;;8.23;;
76846;SDS011;65813;49.546;8.644;2023-02-05T13:37:17;18.53;;;8.00;;
76846;SDS011;65813;49.546;8.644;2023-02-05T13:41:31;14.25;;;7.25;;
76846;SDS011;65813;49.546;8.644;2023-02-05T13:59:01;9.13;;;5.40;;
76846;SDS011;65813;49.546;8.644;2023-02-05T14:03:04;9.50;;;4.63;;
76846;SDS011;65813;49.546;8.644;2023-02-05T14:07:13;10.52;;;5.30;;
76846;SDS011;65813;49.546;8.644;2023-02-05T14:11:20;7.55;;;4.50;;
76846;SDS011;65813;49.546;8.644;2023-02-05T14:15:22;7.80;;;3.50;;
76846;SDS011;65813;49.546;8.644;2023-02-05T14:23:57;7.00;;;3.17;;
76846;SDS011;65813;49.546;8.644;2023-02-05T14:27:59;7.47;;;3.97;;
76846;SDS011;65813;49.546;8.644;2023-02-05T14:31:59;6.30;;;3.13;;
76846;SDS011;65813;49.546;8.644;2023-02-05T14:44:35;6.15;;;3.00;;
76846;SDS011;65813;49.546;8.644;2023-02-05T14:48:39;3.78;;;1.92;;
76846;SDS011;65813;49.546;8.644;2023-02-05T14:52:49;4.05;;;2.05;;
76846;SDS011;65813;49.546;8.644;2023-02-05T14:57:06;4.05;;;1.98;;
76846;SDS011;65813;49.546;8.644;2023-02-05T15:09:49;6.28;;;2.97;;
76846;SDS011;65813;49.546;8.644;2023-02-05T15:18:27;6.20;;;3.05;;
76846;SDS011;65813;49.546;8.644;2023-02-05T15:22:35;5.47;;;2.80;;
76846;SDS011;65813;49.546;8.644;2023-02-05T15:31:04;8.65;;;3.22;;
76846;SDS011;65813;49.546;8.644;2023-02-05T15:35:20;6.68;;;3.30;;
76846;SDS011;65813;49.546;8.644;2023-02-05T15:39:30;5.40;;;2.88;;
76846;SDS011;65813;49.546;8.644;2023-02-05T15:43:38;6.30;;;3.17;;
76846;SDS011;65813;49.546;8.644;2023-02-05T15:47:39;5.47;;;2.75;;
76846;SDS011;65813;49.546;8.644;2023-02-05T15:51:40;5.28;;;2.70;;
76846;SDS011;65813;49.546;8.644;2023-02-05T15:55:40;5.78;;;2.65;;
76846;SDS011;65813;49.546;8.644;2023-02-05T15:59:41;4.93;;;2.38;;
76846;SDS011;65813;49.546;8.644;2023-02-05T16:03:41;6.30;;;3.05;;
76846;SDS011;65813;49.546;8.644;2023-02-05T16:07:42;6.33;;;2.83;;
76846;SDS011;65813;49.546;8.644;2023-02-05T16:11:46;5.80;;;2.92;;
76846;SDS011;65813;49.546;8.644;2023-02-05T16:15:59;5.78;;;3.08;;
76846;SDS011;65813;49.546;8.644;2023-02-05T16:20:21;5.55;;;3.33;;
76846;SDS011;65813;49.546;8.644;2023-02-05T16:24:34;7.15;;;3.85;;
76846;SDS011;65813;49.546;8.644;2023-02-05T16:28:39;6.85;;;2.90;;
76846;SDS011;65813;49.546;8.644;2023-02-05T16:32:47;5.82;;;3.28;;
76846;SDS011;65813;49.546;8.644;2023-02-05T16:36:51;8.98;;;4.68;;
76846;SDS011;65813;49.546;8.644;2023-02-05T16:40:52;11.10;;;4.47;;
76846;SDS011;65813;49.546;8.644;2023-02-05T16:45:02;6.63;;;3.47;;
76846;SDS011;65813;49.546;8.644;2023-02-05T16:49:48;9.23;;;4.30;;
76846;SDS011;65813;49.546;8.644;2023-02-05T16:53:27;9.43;;;4.55;;
76846;SDS011;65813;49.546;8.644;2023-02-05T16:57:34;7.88;;;4.28;;
76846;SDS011;65813;49.546;8.644;2023-02-05T17:01:39;8.52;;;4.43;;
76846;SDS011;65813;49.546;8.644;2023-02-05T17:05:42;5.70;;;3.03;;
76846;SDS011;65813;49.546;8.644;2023-02-05T17:09:43;6.57;;;3.78;;
76846;SDS011;65813;49.546;8.644;2023-02-05T17:13:44;8.27;;;4.68;;
76846;SDS011;65813;49.546;8.644;2023-02-05T17:17:55;8.00;;;4.63;;
76846;SDS011;65813;49.546;8.644;2023-02-05T17:26:09;9.30;;;5.03;;
76846;SDS011;65813;49.546;8.644;2023-02-05T17:30:13;6.55;;;4.07;;
76846;SDS011;65813;49.546;8.644;2023-02-05T17:34:15;7.65;;;4.20;;
76846;SDS011;65813;49.546;8.644;2023-02-05T17:38:15;7.40;;;3.70;;
76846;SDS011;65813;49.546;8.644;2023-02-05T17:42:18;7.28;;;4.03;;
76846;SDS011;65813;49.546;8.644;2023-02-05T17:46:20;7.45;;;3.80;;
76846;SDS011;65813;49.546;8.644;2023-02-05T17:50:21;5.57;;;3.27;;
76846;SDS011;65813;49.546;8.644;2023-02-05T17:54:22;6.23;;;3.50;;
76846;SDS011;65813;49.546;8.644;2023-02-05T17:58:24;5.55;;;3.63;;
76846;SDS011;65813;49.546;8.644;2023-02-05T18:02:25;6.87;;;3.47;;
76846;SDS011;65813;49.546;8.644;2023-02-05T18:06:25;5.95;;;3.22;;
76846;SDS011;65813;49.546;8.644;2023-02-05T18:10:27;6.50;;;3.53;;
76846;SDS011;65813;49.546;8.644;2023-02-05T18:14:32;7.10;;;4.10;;
76846;SDS011;65813;49.546;8.644;2023-02-05T18:18:34;7.03;;;3.90;;
76846;SDS011;65813;49.546;8.644;2023-02-05T18:22:35;7.63;;;4.20;;
76846;SDS011;65813;49.546;8.644;2023-02-05T18:26:36;7.28;;;4.20;;
76846;SDS011;65813;49.546;8.644;2023-02-05T18:30:37;7.45;;;3.97;;
76846;SDS011;65813;49.546;8.644;2023-02-05T18:34:38;7.70;;;4.47;;
76846;SDS011;65813;49.546;8.644;2023-02-05T18:38:39;6.95;;;4.22;;
76846;SDS011;65813;49.546;8.644;2023-02-05T18:42:41;7.72;;;3.70;;
76846;SDS011;65813;49.546;8.644;2023-02-05T18:46:45;6.45;;;3.75;;
76846;SDS011;65813;49.546;8.644;2023-02-05T18:50:46;7.55;;;3.97;;
76846;SDS011;65813;49.546;8.644;2023-02-05T18:54:46;7.80;;;3.93;;
76846;SDS011;65813;49.546;8.644;2023-02-05T18:58:57;5.35;;;3.17;;
76846;SDS011;65813;49.546;8.644;2023-02-05T19:03:01;6.03;;;3.53;;
76846;SDS011;65813;49.546;8.644;2023-02-05T19:07:01;6.13;;;3.30;;
76846;SDS011;65813;49.546;8.644;2023-02-05T19:11:05;6.27;;;3.90;;
76846;SDS011;65813;49.546;8.644;2023-02-05T19:15:07;7.50;;;3.85;;
76846;SDS011;65813;49.546;8.644;2023-02-05T19:19:09;6.55;;;3.67;;
76846;SDS011;65813;49.546;8.644;2023-02-05T19:23:12;6.10;;;3.80;;
76846;SDS011;65813;49.546;8.644;2023-02-05T19:27:12;6.30;;;3.77;;
76846;SDS011;65813;49.546;8.644;2023-02-05T19:31:13;5.50;;;2.97;;
76846;SDS011;65813;49.546;8.644;2023-02-05T19:35:14;5.88;;;3.47;;
76846;SDS011;65813;49.546;8.644;2023-02-05T19:39:14;5.95;;;3.28;;
76846;SDS011;65813;49.546;8.644;2023-02-05T19:43:15;5.15;;;2.90;;
76846;SDS011;65813;49.546;8.644;2023-02-05T19:47:17;6.20;;;3.55;;
76846;SDS011;65813;49.546;8.644;2023-02-05T19:51:17;5.53;;;3.42;;
76846;SDS011;65813;49.546;8.644;2023-02-05T19:55:18;4.40;;;2.63;;
76846;SDS011;65813;49.546;8.644;2023-02-05T19:59:18;5.57;;;3.17;;
76846;SDS011;65813;49.546;8.644;2023-02-05T20:03:19;6.00;;;3.35;;
76846;SDS011;65813;49.546;8.644;2023-02-05T20:07:20;5.60;;;3.00;;
76846;SDS011;65813;49.546;8.644;2023-02-05T20:11:20;6.87;;;3.50;;
76846;SDS011;65813;49.546;8.644;2023-02-05T20:15:20;5.22;;;3.13;;
76846;SDS011;65813;49.546;8.644;2023-02-05T20:19:21;5.23;;;2.90;;
76846;SDS011;65813;49.546;8.644;2023-02-05T20:23:22;5.00;;;3.20;;
76846;SDS011;65813;49.546;8.644;2023-02-05T20:27:24;5.43;;;3.30;;
76846;SDS011;65813;49.546;8.644;2023-02-05T20:31:25;5.90;;;3.47;;
76846;SDS011;65813;49.546;8.644;2023-02-05T20:35:34;6.95;;;3.90;;
76846;SDS011;65813;49.546;8.644;2023-02-05T20:39:34;6.47;;;3.90;;
76846;SDS011;65813;49.546;8.644;2023-02-05T20:43:38;7.55;;;3.85;;
76846;SDS011;65813;49.546;8.644;2023-02-05T20:47:39;5.68;;;3.70;;
76846;SDS011;65813;49.546;8.644;2023-02-05T20:51:39;6.40;;;3.60;;
76846;SDS011;65813;49.546;8.644;2023-02-05T20:55:40;6.30;;;3.72;;
76846;SDS011;65813;49.546;8.644;2023-02-05T20:59:40;5.93;;;3.17;;
76846;SDS011;65813;49.546;8.644;2023-02-05T21:03:41;6.40;;;3.67;;
76846;SDS011;65813;49.546;8.644;2023-02-05T21:07:43;5.57;;;3.17;;
76846;SDS011;65813;49.546;8.644;2023-02-05T21:11:44;6.83;;;3.33;;
76846;SDS011;65813;49.546;8.644;2023-02-05T21:15:57;5.90;;;3.42;;
76846;SDS011;65813;49.546;8.644;2023-02-05T21:19:59;6.18;;;3.78;;
76846;SDS011;65813;49.546;8.644;2023-02-05T21:24:03;5.80;;;3.60;;
76846;SDS011;65813;49.546;8.644;2023-02-05T21:28:06;5.43;;;3.13;;
76846;SDS011;65813;49.546;8.644;2023-02-05T21:32:06;7.60;;;4.43;;
76846;SDS011;65813;49.546;8.644;2023-02-05T21:36:08;6.53;;;4.13;;
76846;SDS011;65813;49.546;8.644;2023-02-05T21:40:09;6.68;;;4.28;;
76846;SDS011;65813;49.546;8.644;2023-02-05T21:44:10;9.10;;;4.88;;
76846;SDS011;65813;49.546;8.644;2023-02-05T21:48:11;8.40;;;4.78;;
76846;SDS011;65813;49.546;8.644;2023-02-05T21:52:11;7.80;;;4.60;;
76846;SDS011;65813;49.546;8.644;2023-02-05T21:56:13;7.40;;;4.70;;
76846;SDS011;65813;49.546;8.644;2023-02-05T22:00:15;7.18;;;4.60;;
76846;SDS011;65813;49.546;8.644;2023-02-05T22:04:16;7.13;;;4.30;;
76846;SDS011;65813;49.546;8.644;2023-02-05T22:08:17;8.15;;;4.95;;
76846;SDS011;65813;49.546;8.644;2023-02-05T22:12:17;7.83;;;4.43;;
